Archival Weather

Norman Y Mineta San Jose Intl

San Jose, California (KSJC)

Report from: Wednesday, April 3, 2024 8:53 AM PDT
Current time: Tuesday, May 21, 2024 9:01 AM PDT

Current weather – Weather history – Daily summaries
Weather forecast

Temperature12.8°C (55.0°F)
Dew point9.4°C (48.9°F)
Winds Calm
Visibility9 mi. (14.5 km)
Clouds Few clouds 100 ft. (30 m)
Ceiling: Broken clouds 1,300 ft. (396 m)
Overcast 1,500 ft. (457 m)
Altimeter30.21 in.Hg (1023 mB)
Relative humidity80 %
Density altitude-423 ft. (-129 m)
Sea-level pressure102.3 kPa (1023 mB, 30.21 in.Hg)
Remarks Automated weather observing station with precipitation discriminator
Flight conditions Marginal Visual Meteorological Conditions
Raw dataKSJC 031553Z 00000KT 9SM FEW001 BKN013 OVC015 13/09 A3021 RMK AO2 SLP230 T01280094
An error has occurred. This application may no longer respond until reloaded. Reload 🗙